createdAt,value
2018-05-17T00:00:21.919Z,0
2018-05-17T00:01:21.691Z,0
2018-05-17T00:02:21.964Z,0
2018-05-17T00:03:22.282Z,0
2018-05-17T00:04:22.267Z,0
2018-05-17T00:05:22.038Z,0
2018-05-17T00:06:22.308Z,0
2018-05-17T00:07:22.330Z,0
2018-05-17T00:08:22.081Z,0
2018-05-17T00:09:21.827Z,0
2018-05-17T00:10:22.425Z,0
2018-05-17T00:11:22.161Z,0
2018-05-17T00:12:22.449Z,0
2018-05-17T00:13:22.193Z,0
2018-05-17T00:14:22.483Z,0
2018-05-17T00:15:22.495Z,0
2018-05-17T00:16:22.502Z,0
2018-05-17T00:17:22.299Z,0
2018-05-17T00:18:22.568Z,0
2018-05-17T00:19:22.594Z,0
2018-05-17T00:20:22.650Z,0
2018-05-17T00:21:22.656Z,0
2018-05-17T00:22:22.370Z,0
2018-05-17T00:23:22.661Z,0
2018-05-17T00:24:22.922Z,0
2018-05-17T00:25:22.719Z,0
2018-05-17T00:26:22.725Z,0
2018-05-17T00:27:22.766Z,0
2018-05-17T00:28:22.786Z,0
2018-05-17T00:29:22.546Z,0
2018-05-17T00:30:22.800Z,0
2018-05-17T00:31:22.559Z,0
2018-05-17T00:32:22.332Z,0
2018-05-17T00:33:22.601Z,0
2018-05-17T00:34:22.894Z,0
2018-05-17T00:35:23.041Z,0
2018-05-17T00:36:22.983Z,0
2018-05-17T00:37:22.963Z,0
2018-05-17T00:38:22.721Z,0
2018-05-17T00:39:23.031Z,0
2018-05-17T00:40:22.754Z,0
2018-05-17T00:41:22.744Z,0
2018-05-17T00:42:23.059Z,0
2018-05-17T00:43:23.100Z,0
2018-05-17T00:44:23.071Z,0
2018-05-17T00:45:23.116Z,0
2018-05-17T00:46:23.145Z,0
2018-05-17T00:47:23.146Z,0
2018-05-17T00:48:23.240Z,0
2018-05-17T00:49:23.205Z,0
2018-05-17T00:50:23.213Z,0
2018-05-17T00:51:22.965Z,0
2018-05-17T00:52:23.671Z,0
2018-05-17T00:53:23.287Z,0
2018-05-17T00:54:22.769Z,0
2018-05-17T00:55:23.305Z,0
2018-05-17T00:56:23.310Z,0
2018-05-17T00:57:23.359Z,0
2018-05-17T00:58:23.133Z,0
2018-05-17T00:59:23.123Z,0
2018-05-17T01:00:23.389Z,0
2018-05-17T01:01:23.186Z,0
2018-05-17T01:02:22.900Z,0
2018-05-17T01:03:23.465Z,0
2018-05-17T01:04:23.481Z,0
2018-05-17T01:05:23.521Z,0
2018-05-17T01:06:23.270Z,0
2018-05-17T01:07:23.560Z,0
2018-05-17T01:08:23.567Z,0
2018-05-17T01:09:23.586Z,0
2018-05-17T01:10:23.087Z,0
2018-05-17T01:11:23.688Z,0
2018-05-17T01:12:23.641Z,0
2018-05-17T01:13:23.407Z,0
2018-05-17T01:14:23.433Z,0
2018-05-17T01:15:23.660Z,0
2018-05-17T01:16:23.443Z,0
2018-05-17T01:17:23.499Z,0
2018-05-17T01:18:23.541Z,0
2018-05-17T01:19:23.539Z,0
2018-05-17T01:20:23.284Z,0
2018-05-17T01:21:23.833Z,0
2018-05-17T01:22:23.606Z,0
2018-05-17T01:23:23.895Z,0
2018-05-17T01:24:23.879Z,0
2018-05-17T01:25:23.928Z,0
2018-05-17T01:26:23.954Z,0
2018-05-17T01:27:23.965Z,0
2018-05-17T01:28:23.696Z,0
2018-05-17T01:29:23.972Z,0
2018-05-17T01:30:24.005Z,0
2018-05-17T01:31:23.762Z,0
2018-05-17T01:32:24.049Z,0
2018-05-17T01:33:24.074Z,0
2018-05-17T01:34:23.805Z,0
2018-05-17T01:35:24.106Z,0
2018-05-17T01:36:23.591Z,0
2018-05-17T01:37:24.119Z,0
2018-05-17T01:38:23.922Z,0
2018-05-17T01:39:23.913Z,0
2018-05-17T01:40:24.229Z,0
2018-05-17T01:41:24.231Z,0
2018-05-17T01:42:24.238Z,0
2018-05-17T01:43:24.032Z,0
2018-05-17T01:44:24.289Z,0
2018-05-17T01:45:24.385Z,0
2018-05-17T01:46:24.346Z,0
2018-05-17T01:47:24.353Z,0
2018-05-17T01:48:24.377Z,0
2018-05-17T01:49:24.137Z,0
2018-05-17T01:50:23.864Z,0
2018-05-17T01:51:24.152Z,0
2018-05-17T01:52:24.462Z,0
2018-05-17T01:53:24.228Z,0
2018-05-17T01:54:24.482Z,0
2018-05-17T01:55:24.230Z,0
2018-05-17T01:56:24.531Z,0
2018-05-17T01:57:24.018Z,0
2018-05-17T01:58:24.763Z,0
2018-05-17T01:59:24.541Z,0
2018-05-17T02:00:24.741Z,0
2018-05-17T02:01:24.621Z,0
2018-05-17T02:02:24.660Z,0
2018-05-17T02:03:24.411Z,0
2018-05-17T02:04:24.439Z,0
2018-05-17T02:05:24.454Z,0
2018-05-17T02:06:24.453Z,0
2018-05-17T02:07:24.510Z,0
2018-05-17T02:08:24.764Z,0
2018-05-17T02:09:24.280Z,0
2018-05-17T02:10:24.811Z,0
2018-05-17T02:11:24.867Z,0
2018-05-17T02:12:24.597Z,0
2018-05-17T02:13:24.601Z,0
2018-05-17T02:14:24.634Z,0
2018-05-17T02:15:24.908Z,0
2018-05-17T02:16:24.943Z,0
2018-05-17T02:17:24.950Z,0
2018-05-17T02:18:24.984Z,0
2018-05-17T02:19:24.876Z,0
2018-05-17T02:20:24.732Z,0
2018-05-17T02:21:25.039Z,0
2018-05-17T02:22:25.047Z,0
2018-05-17T02:23:24.806Z,0
2018-05-17T02:24:25.093Z,0
2018-05-17T02:25:25.096Z,0
2018-05-17T02:26:25.187Z,0
2018-05-17T02:27:25.146Z,0
2018-05-17T02:28:25.158Z,0
2018-05-17T02:29:25.202Z,0
2018-05-17T02:30:25.237Z,0
2018-05-17T02:31:25.218Z,0
2018-05-17T02:32:24.971Z,0
2018-05-17T02:33:24.977Z,0
2018-05-17T02:34:25.003Z,0
2018-05-17T02:35:25.022Z,0
2018-05-17T02:36:24.791Z,0
2018-05-17T02:37:25.338Z,0
2018-05-17T02:38:25.361Z,0
2018-05-17T02:39:25.388Z,0
2018-05-17T02:40:25.390Z,0
2018-05-17T02:41:25.199Z,0
2018-05-17T02:42:25.455Z,0
2018-05-17T02:43:25.313Z,0
2018-05-17T02:44:25.208Z,0
2018-05-17T02:45:25.490Z,0
2018-05-17T02:46:24.970Z,0
2018-05-17T02:47:25.556Z,0
2018-05-17T02:48:25.297Z,0
2018-05-17T02:49:25.734Z,0
2018-05-17T02:50:25.604Z,0
2018-05-17T02:51:25.631Z,0
2018-05-17T02:52:25.099Z,0
2018-05-17T02:53:25.393Z,0
2018-05-17T02:54:25.424Z,0
2018-05-17T02:55:25.160Z,4
2018-05-17T02:56:25.753Z,4
2018-05-17T02:57:25.748Z,0
2018-05-17T02:58:25.764Z,0
2018-05-17T02:59:25.247Z,4
2018-05-17T03:00:25.507Z,4
2018-05-17T03:01:25.553Z,4
2018-05-17T03:02:25.844Z,8
2018-05-17T03:03:25.602Z,4
2018-05-17T03:04:25.863Z,4
2018-05-17T03:05:25.596Z,8
2018-05-17T03:06:25.938Z,4
2018-05-17T03:07:25.660Z,8
2018-05-17T03:08:25.962Z,8
2018-05-17T03:09:26.002Z,8
2018-05-17T03:10:25.445Z,12
2018-05-17T03:11:26.064Z,12
2018-05-17T03:12:26.017Z,12
2018-05-17T03:13:26.037Z,16
2018-05-17T03:14:25.524Z,16
2018-05-17T03:15:26.103Z,16
2018-05-17T03:16:26.147Z,20
2018-05-17T03:17:26.139Z,20
2018-05-17T03:18:26.155Z,20
2018-05-17T03:19:25.616Z,24
2018-05-17T03:20:25.892Z,24
2018-05-17T03:21:25.938Z,28
2018-05-17T03:22:25.969Z,28
2018-05-17T03:23:25.693Z,28
2018-05-17T03:24:25.727Z,32
2018-05-17T03:25:26.026Z,36
2018-05-17T03:26:26.028Z,40
2018-05-17T03:27:26.311Z,40
2018-05-17T03:28:26.366Z,40
2018-05-17T03:29:26.348Z,44
2018-05-17T03:30:26.358Z,44
2018-05-17T03:31:26.393Z,48
2018-05-17T03:32:26.616Z,48
2018-05-17T03:33:26.179Z,52
2018-05-17T03:34:26.451Z,60
2018-05-17T03:35:26.479Z,60
2018-05-17T03:36:26.483Z,60
2018-05-17T03:37:26.238Z,64
2018-05-17T03:38:26.706Z,64
2018-05-17T03:39:26.260Z,68
2018-05-17T03:40:26.323Z,64
2018-05-17T03:41:26.320Z,68
2018-05-17T03:42:26.354Z,68
2018-05-17T03:43:26.375Z,76
2018-05-17T03:44:26.557Z,80
2018-05-17T03:45:26.695Z,80
2018-05-17T03:46:26.447Z,84
2018-05-17T03:47:26.461Z,88
2018-05-17T03:48:26.475Z,96
2018-05-17T03:49:26.470Z,104
2018-05-17T03:50:26.240Z,108
2018-05-17T03:51:26.233Z,104
2018-05-17T03:52:27.020Z,120
2018-05-17T03:53:26.561Z,124
2018-05-17T03:54:26.885Z,136
2018-05-17T03:55:26.870Z,136
2018-05-17T03:56:26.898Z,148
2018-05-17T03:57:26.923Z,160
2018-05-17T03:58:26.936Z,164
2018-05-17T03:59:26.960Z,136
2018-05-17T04:00:26.698Z,176
2018-05-17T04:01:26.865Z,184
2018-05-17T04:02:26.992Z,176
2018-05-17T04:03:27.037Z,172
2018-05-17T04:04:27.046Z,192
2018-05-17T04:05:27.061Z,200
2018-05-17T04:06:26.544Z,208
2018-05-17T04:07:26.851Z,196
2018-05-17T04:08:26.588Z,196
2018-05-17T04:09:26.889Z,216
2018-05-17T04:10:26.618Z,192
2018-05-17T04:11:26.893Z,196
2018-05-17T04:12:27.209Z,240
2018-05-17T04:13:26.934Z,216
2018-05-17T04:14:26.972Z,240
2018-05-17T04:15:27.029Z,228
2018-05-17T04:16:27.282Z,256
2018-05-17T04:17:27.223Z,208
2018-05-17T04:18:27.320Z,248
2018-05-17T04:19:27.073Z,248
2018-05-17T04:20:27.372Z,228
2018-05-17T04:21:27.371Z,256
2018-05-17T04:22:27.411Z,272
2018-05-17T04:23:27.423Z,244
2018-05-17T04:24:27.433Z,280
2018-05-17T04:25:27.182Z,272
2018-05-17T04:26:26.933Z,276
2018-05-17T04:27:27.461Z,280
2018-05-17T04:28:27.228Z,272
2018-05-17T04:29:27.020Z,264
2018-05-17T04:30:27.313Z,280
2018-05-17T04:31:27.601Z,256
2018-05-17T04:32:27.579Z,268
2018-05-17T04:33:27.317Z,276
2018-05-17T04:34:27.363Z,276
2018-05-17T04:35:27.374Z,300
2018-05-17T04:36:27.670Z,316
2018-05-17T04:37:27.144Z,336
2018-05-17T04:38:27.445Z,348
2018-05-17T04:39:27.437Z,368
2018-05-17T04:40:27.820Z,396
2018-05-17T04:41:27.508Z,400
2018-05-17T04:42:27.787Z,412
2018-05-17T04:43:27.511Z,440
2018-05-17T04:44:27.549Z,484
2018-05-17T04:45:27.570Z,492
2018-05-17T04:46:27.869Z,456
2018-05-17T04:47:27.859Z,516
2018-05-17T04:48:27.902Z,564
2018-05-17T04:49:27.629Z,520
2018-05-17T04:50:27.669Z,528
2018-05-17T04:51:27.680Z,508
2018-05-17T04:52:27.991Z,516
2018-05-17T04:53:28.002Z,556
2018-05-17T04:54:27.793Z,564
2018-05-17T04:55:27.764Z,552
2018-05-17T04:56:27.784Z,564
2018-05-17T04:57:28.081Z,616
2018-05-17T04:58:27.877Z,568
2018-05-17T04:59:28.186Z,624
2018-05-17T05:00:28.147Z,632
2018-05-17T05:01:27.621Z,628
2018-05-17T05:02:27.647Z,628
2018-05-17T05:03:27.929Z,652
2018-05-17T05:04:27.681Z,624
2018-05-17T05:05:27.982Z,652
2018-05-17T05:06:28.260Z,604
2018-05-17T05:07:28.282Z,544
2018-05-17T05:08:28.031Z,644
2018-05-17T05:09:27.591Z,616
2018-05-17T05:10:28.340Z,580
2018-05-17T05:11:28.060Z,532
2018-05-17T05:12:28.412Z,588
2018-05-17T05:13:28.125Z,568
2018-05-17T05:14:28.412Z,572
2018-05-17T05:15:28.440Z,548
2018-05-17T05:16:28.455Z,532
2018-05-17T05:17:28.478Z,412
2018-05-17T05:18:28.422Z,388
2018-05-17T05:19:28.245Z,452
2018-05-17T05:22:32.978Z,424
2018-05-17T05:22:42.829Z,432
2018-05-17T05:23:42.871Z,416
2018-05-17T05:24:42.602Z,460
2018-05-17T05:25:42.891Z,460
2018-05-17T05:26:43.168Z,480
2018-05-17T05:27:43.259Z,468
2018-05-17T05:28:43.206Z,548
2018-05-17T05:29:42.963Z,520
2018-05-17T05:30:43.261Z,452
2018-05-17T05:31:43.544Z,588
2018-05-17T05:32:42.752Z,680
2018-05-17T05:33:43.297Z,576
2018-05-17T05:34:42.784Z,804
2018-05-17T05:35:43.050Z,796
2018-05-17T05:36:43.093Z,920
2018-05-17T05:37:43.793Z,868
2018-05-17T05:38:43.377Z,768
2018-05-17T05:39:43.154Z,728
2018-05-17T05:40:43.446Z,740
2018-05-17T05:41:43.201Z,756
2018-05-17T05:42:43.465Z,724
2018-05-17T05:43:43.480Z,820
2018-05-17T05:44:43.615Z,684
2018-05-17T05:45:43.271Z,780
2018-05-17T05:46:43.566Z,680
2018-05-17T05:47:43.313Z,756
2018-05-17T05:48:43.602Z,992
2018-05-17T05:49:43.494Z,848
2018-05-17T05:50:43.382Z,880
2018-05-17T05:51:43.394Z,952
2018-05-17T05:52:43.399Z,864
2018-05-17T05:53:43.153Z,904
2018-05-17T05:54:43.443Z,916
2018-05-17T05:55:43.739Z,1140
2018-05-17T05:56:43.483Z,1028
2018-05-17T05:57:43.238Z,1080
2018-05-17T05:58:43.798Z,968
2018-05-17T05:59:43.811Z,804
2018-05-17T06:00:43.552Z,708
2018-05-17T06:01:43.862Z,740
2018-05-17T06:02:44.187Z,788
2018-05-17T06:03:43.891Z,752
2018-05-17T06:04:43.919Z,660
2018-05-17T06:05:43.931Z,700
2018-05-17T06:06:43.960Z,776
2018-05-17T06:07:43.993Z,628
2018-05-17T06:08:43.715Z,568
2018-05-17T06:09:43.985Z,620
2018-05-17T06:10:44.024Z,804
2018-05-17T06:11:44.051Z,816
2018-05-17T06:12:44.074Z,792
2018-05-17T06:13:44.070Z,760
2018-05-17T06:14:45.355Z,692
2018-05-17T06:15:44.134Z,776
2018-05-17T06:16:44.154Z,852
2018-05-17T06:17:43.922Z,868
2018-05-17T06:18:44.177Z,888
2018-05-17T06:19:44.208Z,856
2018-05-17T06:20:43.962Z,616
2018-05-17T06:21:43.978Z,776
2018-05-17T06:22:44.009Z,996
2018-05-17T06:23:44.408Z,824
2018-05-17T06:24:44.325Z,848
2018-05-17T06:25:44.065Z,880
2018-05-17T06:26:44.065Z,1000
2018-05-17T06:27:44.112Z,948
2018-05-17T06:28:44.373Z,984
2018-05-17T06:29:44.397Z,768
2018-05-17T06:30:44.160Z,828
2018-05-17T06:31:44.204Z,932
2018-05-17T06:32:44.257Z,864
2018-05-17T06:33:44.252Z,896
2018-05-17T06:34:44.508Z,868
2018-05-17T06:35:44.517Z,708
2018-05-17T06:36:44.027Z,704
2018-05-17T06:37:44.371Z,752
2018-05-17T06:38:44.602Z,776
2018-05-17T06:39:44.609Z,756
2018-05-17T06:40:44.619Z,728
2018-05-17T06:41:44.360Z,820
2018-05-17T06:42:44.712Z,752
2018-05-17T06:43:44.675Z,744
2018-05-17T06:44:44.432Z,892
2018-05-17T06:45:44.201Z,788
2018-05-17T06:46:44.470Z,656
2018-05-17T06:47:44.753Z,712
2018-05-17T06:48:44.803Z,712
2018-05-17T06:49:44.802Z,708
2018-05-17T06:50:44.813Z,712
2018-05-17T06:51:44.579Z,700
2018-05-17T06:52:44.593Z,772
2018-05-17T06:53:44.347Z,812
2018-05-17T06:54:44.640Z,800
2018-05-17T06:55:44.672Z,792
2018-05-17T06:56:44.668Z,788
2018-05-17T06:57:44.425Z,896
2018-05-17T06:58:44.962Z,780
2018-05-17T06:59:44.992Z,708
2018-05-17T07:00:45.424Z,888
2018-05-17T07:01:45.039Z,952
2018-05-17T07:02:45.071Z,864
2018-05-17T07:03:45.100Z,956
2018-05-17T07:04:44.827Z,908
2018-05-17T07:05:45.142Z,980
2018-05-17T07:06:45.131Z,1100
2018-05-17T07:07:44.892Z,1340
2018-05-17T07:08:45.173Z,1012
2018-05-17T07:09:44.946Z,1064
2018-05-17T07:10:45.231Z,1212
2018-05-17T07:11:44.965Z,1300
2018-05-17T07:12:44.977Z,1020
2018-05-17T07:13:45.314Z,1256
2018-05-17T07:14:45.451Z,1200
2018-05-17T07:15:45.329Z,948
2018-05-17T07:16:45.085Z,936
2018-05-17T07:17:45.093Z,916
2018-05-17T07:18:46.882Z,948
2018-05-17T07:19:44.874Z,892
2018-05-17T07:20:45.431Z,1104
2018-05-17T07:21:45.450Z,1096
2018-05-17T07:22:44.645Z,948
2018-05-17T07:23:45.211Z,1080
2018-05-17T07:24:45.240Z,1080
2018-05-17T07:25:45.255Z,1272
2018-05-17T07:26:45.267Z,1228
2018-05-17T07:27:45.584Z,1316
2018-05-17T07:28:45.314Z,1148
2018-05-17T07:29:45.625Z,1172
2018-05-17T07:30:45.614Z,1196
2018-05-17T07:31:45.744Z,1140
2018-05-17T07:32:45.691Z,1148
2018-05-17T07:33:45.519Z,1184
2018-05-17T07:34:45.705Z,988
2018-05-17T07:35:45.739Z,1112
2018-05-17T07:36:45.746Z,952
2018-05-17T07:37:45.500Z,1040
2018-05-17T07:38:45.792Z,1036
2018-05-17T07:39:45.796Z,964
2018-05-17T07:40:45.850Z,1136
2018-05-17T07:41:45.940Z,1108
2018-05-17T07:42:45.578Z,1148
2018-05-17T07:43:45.343Z,1292
2018-05-17T07:44:45.646Z,1180
2018-05-17T07:45:45.920Z,1224
2018-05-17T07:46:45.808Z,1288
2018-05-17T07:47:45.428Z,1400
2018-05-17T07:48:46.017Z,1464
2018-05-17T07:49:45.474Z,1176
2018-05-17T07:50:46.057Z,1040
2018-05-17T07:51:45.780Z,1084
2018-05-17T07:52:45.801Z,1128
2018-05-17T07:53:45.801Z,1072
2018-05-17T07:54:45.571Z,1124
2018-05-17T07:55:46.419Z,1244
2018-05-17T07:56:46.130Z,1244
2018-05-17T07:57:45.982Z,1176
2018-05-17T07:58:45.907Z,1204
2018-05-17T07:59:45.406Z,1188
2018-05-17T08:00:46.222Z,1204
2018-05-17T08:01:46.463Z,1236
2018-05-17T08:02:46.269Z,1108
2018-05-17T08:03:45.745Z,1196
2018-05-17T08:04:46.301Z,1220
2018-05-17T08:05:46.040Z,1212
2018-05-17T08:06:46.077Z,1252
2018-05-17T08:07:46.363Z,1088
2018-05-17T08:08:46.398Z,996
2018-05-17T08:09:46.378Z,1064
2018-05-17T08:10:46.446Z,1104
2018-05-17T08:11:46.447Z,1096
2018-05-17T08:12:46.471Z,1208
2018-05-17T08:13:46.494Z,1304
2018-05-17T08:14:46.613Z,1376
2018-05-17T08:15:46.523Z,1348
2018-05-17T08:16:46.265Z,1416
2018-05-17T08:17:46.541Z,1588
2018-05-17T08:18:46.056Z,1532
2018-05-17T08:19:46.334Z,1456
2018-05-17T08:20:46.361Z,1500
2018-05-17T08:21:46.399Z,1416
2018-05-17T08:22:46.652Z,1404
2018-05-17T08:23:46.422Z,1444
2018-05-17T08:24:46.728Z,1496
2018-05-17T08:25:46.463Z,1712
2018-05-17T08:26:46.777Z,1800
2018-05-17T08:27:46.767Z,1568
2018-05-17T08:28:46.800Z,1828
2018-05-17T08:29:46.783Z,1688
2018-05-17T08:30:46.801Z,1616
2018-05-17T08:31:46.840Z,1400
2018-05-17T08:32:46.842Z,1484
2018-05-17T08:33:46.354Z,1448
2018-05-17T08:34:46.910Z,1544
2018-05-17T08:35:46.911Z,1376
2018-05-17T08:36:46.817Z,1436
2018-05-17T08:37:46.981Z,1392
2018-05-17T08:38:46.985Z,1600
2018-05-17T08:39:47.013Z,1568
2018-05-17T08:40:46.480Z,1388
2018-05-17T08:41:46.769Z,1404
2018-05-17T08:42:46.945Z,1424
2018-05-17T08:43:47.103Z,1292
2018-05-17T08:44:46.848Z,1244
2018-05-17T08:45:47.127Z,1572
2018-05-17T08:46:47.175Z,1676
2018-05-17T08:47:47.151Z,1660
2018-05-17T08:48:47.219Z,1808
2018-05-17T08:49:46.939Z,1408
2018-05-17T08:50:47.245Z,1640
2018-05-17T08:51:46.980Z,1568
2018-05-17T08:52:47.024Z,1640
2018-05-17T08:53:47.037Z,1540
2018-05-17T08:54:47.317Z,1548
2018-05-17T08:55:47.348Z,1496
2018-05-17T08:56:47.368Z,1500
2018-05-17T08:57:47.130Z,1504
2018-05-17T08:58:47.400Z,1568
2018-05-17T08:59:47.244Z,1548
2018-05-17T09:00:47.173Z,1704
2018-05-17T09:01:47.435Z,1680
2018-05-17T09:02:47.198Z,1652
2018-05-17T09:03:47.519Z,1560
2018-05-17T09:04:47.549Z,1380
2018-05-17T09:05:47.282Z,1760
2018-05-17T09:06:47.585Z,1856
2018-05-17T09:07:47.300Z,1992
2018-05-17T09:08:47.646Z,1764
2018-05-17T09:09:47.333Z,2056
2018-05-17T09:10:47.390Z,1768
2018-05-17T09:11:47.678Z,1932
2018-05-17T09:12:47.677Z,2060
2018-05-17T09:13:47.899Z,1996
2018-05-17T09:14:47.861Z,1880
2018-05-17T09:15:47.460Z,1744
2018-05-17T09:16:47.808Z,1700
2018-05-17T09:17:47.878Z,1608
2018-05-17T09:18:47.277Z,1596
2018-05-17T09:19:47.610Z,1608
2018-05-17T09:20:47.841Z,1388
2018-05-17T09:21:47.859Z,1456
2018-05-17T09:22:47.892Z,1636
2018-05-17T09:23:47.911Z,1784
2018-05-17T09:24:47.405Z,1904
2018-05-17T09:25:47.419Z,1636
2018-05-17T09:26:47.719Z,1672
2018-05-17T09:27:47.999Z,1888
2018-05-17T09:28:47.745Z,1768
2018-05-17T09:29:47.496Z,1824
2018-05-17T09:30:48.045Z,1700
2018-05-17T09:31:47.802Z,1952
2018-05-17T09:32:47.812Z,1780
2018-05-17T09:33:48.116Z,2192
2018-05-17T09:34:47.858Z,2492
2018-05-17T09:35:48.569Z,2128
2018-05-17T09:36:48.172Z,2144
2018-05-17T09:37:47.654Z,2108
2018-05-17T09:38:48.222Z,2136
2018-05-17T09:39:48.263Z,2100
2018-05-17T09:40:47.996Z,2500
2018-05-17T09:41:48.009Z,2304
2018-05-17T09:42:47.759Z,2440
2018-05-17T09:43:48.317Z,2204
2018-05-17T09:44:48.061Z,2080
2018-05-17T09:45:48.335Z,2208
2018-05-17T09:46:48.364Z,2212
2018-05-17T09:47:48.291Z,1904
2018-05-17T09:48:48.427Z,1992
2018-05-17T09:49:48.187Z,2308
2018-05-17T09:50:47.917Z,1896
2018-05-17T09:51:48.501Z,2200
2018-05-17T09:52:48.237Z,2200
2018-05-17T09:53:48.502Z,2288
2018-05-17T09:54:48.559Z,2092
2018-05-17T09:55:48.559Z,2200
2018-05-17T09:56:48.590Z,2560
2018-05-17T09:57:48.328Z,2448
2018-05-17T09:58:48.608Z,2252
2018-05-17T09:59:48.408Z,3056
2018-05-17T10:00:48.401Z,2936
2018-05-17T10:01:48.425Z,3408
2018-05-17T10:02:48.423Z,3616
2018-05-17T10:03:48.756Z,2920
2018-05-17T10:04:48.474Z,2992
2018-05-17T10:05:48.832Z,2720
2018-05-17T10:06:48.534Z,2992
2018-05-17T10:07:48.797Z,2696
2018-05-17T10:08:48.668Z,3448
2018-05-17T10:09:48.597Z,3152
2018-05-17T10:10:48.921Z,3380
2018-05-17T10:11:48.895Z,3000
2018-05-17T10:12:48.939Z,2528
2018-05-17T10:13:49.013Z,2632
2018-05-17T10:14:48.982Z,2484
2018-05-17T10:15:49.012Z,2644
2018-05-17T10:16:48.481Z,2412
2018-05-17T10:17:49.031Z,2336
2018-05-17T10:18:49.055Z,2668
2018-05-17T10:19:49.054Z,2924
2018-05-17T10:20:48.804Z,3080
2018-05-17T10:21:48.909Z,3504
2018-05-17T10:22:49.131Z,3480
2018-05-17T10:23:49.169Z,2924
2018-05-17T10:24:49.234Z,3224
2018-05-17T10:25:49.242Z,2932
2018-05-17T10:26:49.213Z,2816
2018-05-17T10:27:48.978Z,3240
2018-05-17T10:28:49.020Z,3212
2018-05-17T10:29:49.020Z,3312
2018-05-17T10:31:03.640Z,3616
2018-05-17T10:31:49.082Z,3808
2018-05-17T10:32:49.371Z,3696
2018-05-17T10:33:49.355Z,3180
2018-05-17T10:34:49.369Z,3356
2018-05-17T10:35:49.142Z,3744
2018-05-17T10:36:49.519Z,3068
2018-05-17T10:37:49.177Z,3548
2018-05-17T10:38:49.461Z,3644
2018-05-17T10:39:49.524Z,3048
2018-05-17T10:40:49.254Z,2796
2018-05-17T10:41:49.545Z,2756
2018-05-17T10:42:49.012Z,2776
2018-05-17T10:43:49.670Z,2684
2018-05-17T10:44:49.606Z,3064
2018-05-17T10:45:49.356Z,3396
2018-05-17T10:46:49.379Z,3336
2018-05-17T10:47:49.670Z,3408
2018-05-17T10:48:49.794Z,3860
2018-05-17T10:49:49.712Z,4608
2018-05-17T10:50:49.482Z,3932
2018-05-17T10:51:49.760Z,3072
2018-05-17T10:52:49.771Z,3084
2018-05-17T10:53:49.806Z,2640
2018-05-17T10:54:49.556Z,3256
2018-05-17T10:55:49.837Z,3584
2018-05-17T10:56:49.843Z,3292
2018-05-17T10:57:49.912Z,3480
2018-05-17T10:58:49.673Z,3920
2018-05-17T10:59:49.923Z,3772
2018-05-17T11:00:49.418Z,4680
2018-05-17T11:01:49.451Z,4392
2018-05-17T11:02:50.131Z,3944
2018-05-17T11:03:49.488Z,3948
2018-05-17T11:04:49.250Z,4368
2018-05-17T11:05:49.787Z,4516
2018-05-17T11:06:49.804Z,3840
2018-05-17T11:07:50.081Z,3348
2018-05-17T11:08:50.130Z,3228
2018-05-17T11:09:50.161Z,4180
2018-05-17T11:10:49.923Z,4248
2018-05-17T11:11:50.203Z,3944
2018-05-17T11:12:49.962Z,4460
2018-05-17T11:13:49.958Z,5064
2018-05-17T11:14:50.502Z,4236
2018-05-17T11:15:50.292Z,3880
2018-05-17T11:16:50.308Z,4468
2018-05-17T11:17:50.047Z,4408
2018-05-17T11:18:49.805Z,3684
2018-05-17T11:19:50.378Z,3756
2018-05-17T11:20:50.137Z,3608
2018-05-17T11:21:50.408Z,3740
2018-05-17T11:22:50.182Z,3844
2018-05-17T11:23:50.199Z,3744
2018-05-17T11:24:50.469Z,3532
2018-05-17T11:25:50.552Z,3592
2018-05-17T11:26:50.591Z,3360
2018-05-17T11:27:50.595Z,3496
2018-05-17T11:28:50.571Z,3292
2018-05-17T11:29:50.590Z,3216
2018-05-17T11:30:50.614Z,2764
2018-05-17T11:31:50.655Z,2504
2018-05-17T11:32:50.407Z,2276
2018-05-17T11:33:50.706Z,2908
2018-05-17T11:34:50.723Z,2916
2018-05-17T11:35:50.474Z,2852
2018-05-17T11:36:50.220Z,3036
2018-05-17T11:37:50.494Z,3560
2018-05-17T11:38:50.547Z,3772
2018-05-17T11:39:50.835Z,3936
2018-05-17T11:40:50.856Z,4216
2018-05-17T11:41:50.877Z,4060
2018-05-17T11:42:50.347Z,4044
2018-05-17T11:43:50.398Z,3612
2018-05-17T11:44:50.649Z,3700
2018-05-17T11:45:51.012Z,3520
2018-05-17T11:46:50.976Z,3632
2018-05-17T11:47:50.767Z,3704
2018-05-17T11:48:50.790Z,3740
2018-05-17T11:49:51.049Z,3248
2018-05-17T11:50:50.595Z,3128
2018-05-17T11:51:50.558Z,3020
2018-05-17T11:52:50.840Z,3340
2018-05-17T11:53:50.884Z,2776
2018-05-17T11:54:50.638Z,3064
2018-05-17T11:55:50.931Z,3696
2018-05-17T11:56:51.222Z,4100
2018-05-17T11:57:51.270Z,4784
2018-05-17T11:58:51.252Z,4832
2018-05-17T11:59:50.751Z,4568
2018-05-17T12:00:51.314Z,4564
2018-05-17T12:01:51.329Z,3276
2018-05-17T12:02:51.476Z,3148
2018-05-17T12:03:51.375Z,3304
2018-05-17T12:04:51.401Z,3556
2018-05-17T12:05:51.417Z,3696
2018-05-17T12:06:51.285Z,4668
2018-05-17T12:07:51.236Z,3764
2018-05-17T12:08:51.507Z,4040
2018-05-17T12:09:51.553Z,4584
2018-05-17T12:10:51.554Z,3516
2018-05-17T12:11:51.304Z,4176
2018-05-17T12:12:51.589Z,3320
2018-05-17T12:13:51.594Z,3256
2018-05-17T12:14:51.113Z,3656
2018-05-17T12:15:51.687Z,2948
2018-05-17T12:16:51.433Z,3084
2018-05-17T12:17:51.455Z,3492
2018-05-17T12:18:51.199Z,4512
2018-05-17T12:19:51.790Z,4516
2018-05-17T12:20:51.509Z,3888
2018-05-17T12:21:51.339Z,3816
2018-05-17T12:22:51.840Z,3492
2018-05-17T12:23:51.859Z,4296
2018-05-17T12:24:51.868Z,5140
2018-05-17T12:25:51.913Z,5476
2018-05-17T12:26:51.661Z,6012
2018-05-17T12:27:51.950Z,5576
2018-05-17T12:28:51.983Z,5360
2018-05-17T12:29:52.020Z,5016
2018-05-17T12:30:51.765Z,6132
2018-05-17T12:31:52.618Z,6476
2018-05-17T12:32:52.080Z,7040
2018-05-17T12:33:51.578Z,7016
2018-05-17T12:34:51.601Z,7656
2018-05-17T12:35:51.608Z,7504
2018-05-17T12:36:52.166Z,7640
2018-05-17T12:37:51.936Z,7560
2018-05-17T12:38:51.956Z,6792
2018-05-17T12:39:52.267Z,5456
2018-05-17T12:40:51.983Z,5208
2018-05-17T12:41:52.321Z,3908
2018-05-17T12:42:52.640Z,3296
2018-05-17T12:43:52.079Z,3104
2018-05-17T12:44:52.097Z,3000
2018-05-17T12:45:52.408Z,2964
2018-05-17T12:46:52.406Z,3016
2018-05-17T12:47:51.910Z,3056
2018-05-17T12:48:52.457Z,3032
2018-05-17T12:49:52.501Z,3068
2018-05-17T12:50:52.832Z,3116
2018-05-17T12:51:52.273Z,3224
2018-05-17T12:52:52.315Z,3404
2018-05-17T12:53:52.584Z,4392
2018-05-17T12:54:52.623Z,5036
2018-05-17T12:55:52.639Z,4064
2018-05-17T12:56:53.060Z,4224
2018-05-17T12:57:52.691Z,4572
2018-05-17T12:58:52.610Z,5160
2018-05-17T12:59:52.491Z,5276
2018-05-17T13:00:52.501Z,5028
2018-05-17T13:01:52.758Z,3980
2018-05-17T13:02:52.829Z,3836
2018-05-17T13:03:52.578Z,3960
2018-05-17T13:04:52.866Z,5040
2018-05-17T13:05:52.887Z,4240
2018-05-17T13:06:52.994Z,4148
2018-05-17T13:07:52.959Z,4652
2018-05-17T13:08:52.984Z,4128
2018-05-17T13:09:53.030Z,4464
2018-05-17T13:10:53.026Z,4960
2018-05-17T13:11:52.510Z,5456
2018-05-17T13:12:52.550Z,5600
2018-05-17T13:13:53.166Z,4624
2018-05-17T13:14:52.611Z,3444
2018-05-17T13:15:52.611Z,3584
2018-05-17T13:16:53.172Z,3920
2018-05-17T13:17:53.182Z,6384
2018-05-17T13:18:53.218Z,6660
2018-05-17T13:19:53.273Z,6020
2018-05-17T13:20:53.279Z,5844
2018-05-17T13:21:53.330Z,6960
2018-05-17T13:22:53.341Z,6184
2018-05-17T13:23:53.090Z,6164
2018-05-17T13:24:53.561Z,5404
2018-05-17T13:25:53.404Z,4708
2018-05-17T13:26:53.507Z,4520
2018-05-17T13:27:53.174Z,4124
2018-05-17T13:28:53.513Z,3084
2018-05-17T13:29:53.491Z,3056
2018-05-17T13:30:53.276Z,3740
2018-05-17T13:31:53.566Z,4860
2018-05-17T13:32:53.571Z,5204
2018-05-17T13:33:53.651Z,5104
2018-05-17T13:34:53.368Z,4228
2018-05-17T13:35:53.118Z,3584
2018-05-17T13:36:53.753Z,4432
2018-05-17T13:37:53.175Z,3736
2018-05-17T13:38:53.212Z,3988
2018-05-17T13:39:53.549Z,3980
2018-05-17T13:40:53.538Z,4332
2018-05-17T13:41:53.809Z,5876
2018-05-17T13:42:53.875Z,6036
2018-05-17T13:43:53.863Z,6220
2018-05-17T13:44:53.390Z,5916
2018-05-17T13:45:53.678Z,5580
2018-05-17T13:46:54.102Z,4940
2018-05-17T13:47:53.852Z,4944